Station: Lady Elliot Island  

  Atmospheric Gas Attenuation - ITU Rec 676-11   ----------------- dB/100km -----------------
Date Time Temp RH % AH g/m3 Dew Point Wind Direction Speed kph Gust kph Barometer mB Rainfall Since 9am 24GHz 47GHz 76GHz 122GHz 134GHz 241GHz
05/09 20:10 21.3 84 15.66 18.5 20 24 1019.6 0 34.2 35.7 65.5 173.0 185.0 641.8
05/09 20:00 21.2 82 15.2 18 20 24 1019.6 0 33.2 34.9 63.5 167.6 178.4 618.8
05/09 19:50 21.2 83 15.38 18.2 20 26 1019.6 0 33.6 35.3 64.3 169.8 181.1 628.1
05/09 19:40 21.3 84 15.66 18.5 20 24 1019.7 0 34.2 35.7 65.5 173.0 185.0 641.8
05/09 19:29 21.4 84 15.75 18.6 15 19 1019.6 0 34.3 35.9 65.8 173.8 186.1 645.6
05/09 19:20 21.3 84 15.66 18.5 19 24 1019.5 0 34.2 35.7 65.5 172.9 185.0 641.7
05/09 19:10 21.3 83 15.47 18.3 19 22 1019.4 0 33.8 35.4 64.6 170.6 182.1 631.8
05/09 19:00 21.3 82 15.28 18.1 19 22 1019.3 0 33.4 35.0 63.8 168.3 179.3 621.9
05/09 18:50 21.4 83 15.56 18.4 20 24 1019.2 0 33.9 35.5 64.9 171.5 183.2 635.5
05/09 18:40 21.5 83 15.65 18.5 20 24 1019.1 0 34.1 35.6 65.3 172.3 184.3 639.3
05/09 18:30 21.4 82 15.37 18.2 20 24 1019.1 0 33.5 35.1 64.1 169.2 180.4 625.7
05/09 18:20 21.5 82 15.46 18.3 19 24 1019.1 0 33.7 35.3 64.4 170.0 181.5 629.5
05/09 18:10 21.5 83 15.65 18.5 20 24 1019.1 0 34.1 35.6 65.3 172.3 184.3 639.3
05/09 18:00 21.6 81 15.36 18.2 19 22 1019.1 0 33.5 35.0 63.9 168.6 179.8 623.5
05/09 17:50 21.6 81 15.36 18.2 20 24 1019.1 0 33.5 35.0 63.9 168.6 179.8 623.5
05/09 17:40 21.6 80 15.17 18 20 26 1019 0 33.1 34.7 63.0 166.3 176.9 613.7
05/09 17:30 21.7 80 15.26 18.1 19 24 1019 0 33.3 34.8 63.3 167.2 178.0 617.5
05/09 17:20 22 80 15.53 18.4 20 24 1018.9 0 33.8 35.2 64.3 169.7 181.3 628.9
05/09 17:10 22.2 79 15.51 18.4 22 28 1018.8 0 33.8 35.1 64.0 169.0 180.5 626.2
05/09 17:00 22.4 79 15.69 18.6 22 28 1018.8 0 34.1 35.3 64.7 170.7 182.7 633.8
05/09 16:50 22.5 77 15.38 18.3 22 28 1018.7 0 33.5 34.7 63.2 166.8 177.9 617.1
05/09 16:40 22.6 76 15.27 18.2 24 28 1018.6 0 33.2 34.5 62.6 165.3 176.0 610.6
05/09 16:30 22.8 76 15.44 18.3 22 26 1018.5 0 33.6 34.7 63.2 166.8 178.0 617.6
05/09 16:20 22.9 75 15.33 18.2 24 30 1018.5 0 33.3 34.4 62.6 165.3 176.2 611.2
05/09 16:10 23.2 75 15.59 18.5 22 28 1018.4 0 33.9 34.8 63.5 167.7 179.2 621.9
05/09 16:00 23.3 75 15.68 18.6 22 28 1018.4 0 34.0 34.9 63.8 168.6 180.3 625.7
05/09 15:50 23.3 75 15.68 18.6 22 28 1018.4 0 34.0 34.9 63.8 168.6 180.3 625.7
05/09 15:40 23.6 75 15.95 18.9 20 26 1018.3 0 34.6 35.2 64.8 171.1 183.5 636.8
05/09 15:30 23.8 74 15.92 18.9 20 28 1018.4 0 34.5 35.1 64.5 170.3 182.6 633.7
05/09 15:20 23.5 72 15.23 18.2 20 24 1018.4 0 33.1 34.0 61.7 162.9 173.3 601.5
05/09 15:10 24.1 73 15.97 19 19 24 1018.4 0 34.6 35.1 64.5 170.2 182.6 633.8
05/09 14:59 24.4 72 16.02 19 19 24 1018.4 0 34.7 35.0 64.4 170.2 182.6 633.8
05/09 14:50 24.3 71 15.71 18.7 20 26 1018.5 0 34.0 34.5 63.1 166.8 178.4 619.1
05/09 14:40 24.4 70 15.58 18.6 20 24 1018.7 0 33.7 34.3 62.5 165.1 176.3 611.9
05/09 14:30 24.3 70 15.49 18.5 19 24 1018.8 0 33.6 34.2 62.2 164.2 175.3 608.3
05/09 14:20 24 70 15.23 18.2 20 26 1018.9 0 33.0 33.8 61.3 161.9 172.3 597.8
05/09 14:10 25 71 16.34 19.4 19 24 1019 0 35.3 35.4 65.4 172.7 185.8 645.2
05/09 14:00 25 70 16.11 19.1 19 22 1019.1 0 34.8 35.0 64.4 170.0 182.5 633.7
05/09 13:50 24.8 71 16.16 19.2 19 22 1019.2 0 34.9 35.2 64.8 171.0 183.8 637.9
05/09 13:40 24.9 71 16.25 19.3 17 20 1019.4 0 35.1 35.3 65.1 171.9 184.8 641.7
05/09 13:30 24.7 69 15.62 18.6 17 20 1019.6 0 33.8 34.3 62.5 165.0 176.3 611.9
05/09 13:20 24.7 70 15.84 18.9 17 20 1019.7 0 34.3 34.7 63.5 167.6 179.5 622.9
05/09 13:10 24.8 67 15.25 18.3 17 20 1019.8 0 33.0 33.6 60.8 160.6 170.9 593.0
05/09 13:00 24.9 68 15.57 18.6 17 20 1020 0 33.7 34.1 62.1 164.1 175.2 608.1
05/09 12:50 24.8 66 15.02 18 17 20 1020.1 0 32.5 33.2 59.9 158.0 167.7 581.9
05/09 12:40 24.9 68 15.57 18.6 17 19 1020.3 0 33.7 34.1 62.2 164.1 175.2 608.2
05/09 12:29 25 69 15.88 18.9 15 17 1020.4 0 34.3 34.6 63.4 167.5 179.4 622.8
05/09 12:20 25.1 69 15.97 19 15 19 1020.6 0 34.5 34.8 63.7 168.4 180.5 626.6
05/09 12:08 25 69 15.88 18.9 15 17 1020.7 0 34.3 34.7 63.4 167.5 179.5 622.9
05/09 12:00 24.9 66 15.11 18.1 13 17 1020.9 0 32.7 33.4 60.2 158.9 168.8 585.9
05/09 11:50 25.1 68 15.74 18.8 13 17 1021.1 0 34.0 34.4 62.8 165.8 177.3 615.4
05/09 11:40 24.8 67 15.25 18.3 15 17 1021.4 0 33.0 33.7 60.9 160.8 171.1 593.7
05/09 11:30 24.6 67 15.08 18.1 13 17 1021.5 0 32.6 33.4 60.3 159.3 169.1 586.9
05/09 11:20 24.7 71 16.07 19.1 11 15 1021.7 0 34.7 35.1 64.6 170.5 183.0 635.3
05/09 11:10 25.6 70 16.67 19.7 13 17 1021.8 0 35.9 35.8 66.5 175.6 189.5 658.0
05/09 11:00 24.6 68 15.3 18.3 13 15 1022 0 33.1 33.8 61.3 161.9 172.3 597.9
05/09 10:50 25.2 68 15.83 18.9 13 17 1022.2 0 34.2 34.5 63.1 166.7 178.5 619.5
05/09 10:40 25 69 15.88 18.9 15 17 1022.3 0 34.3 34.7 63.5 167.8 179.7 623.6
05/09 10:30 25.2 68 15.83 18.9 13 17 1022.5 0 34.2 34.6 63.2 166.8 178.5 619.6
05/09 10:20 25.1 65 15.05 18.1 13 17 1022.6 0 32.5 33.2 59.9 158.1 167.8 582.1
05/09 10:10 25 71 16.34 19.4 13 17 1022.7 0 35.3 35.5 65.6 173.2 186.3 646.9
05/09 10:00 24.7 69 15.62 18.6 13 15 1022.7 0 33.8 34.4 62.7 165.4 176.7 613.3
05/09 09:50 24.1 71 15.53 18.5 13 15 1022.8 0 33.6 34.5 62.8 165.7 176.8 613.6
05/09 09:40 24.6 70 15.75 18.8 13 17 1022.8 0 34.1 34.7 63.3 167.2 178.8 620.6
05/09 09:30 24.7 72 16.3 19.3 13 19 1022.8 0 35.2 35.6 65.7 173.4 186.5 647.4
05/09 09:20 24.1 72 15.75 18.7 15 22 1022.8 0 34.1 34.9 63.7 168.3 180.0 624.7
05/09 09:10 23.7 73 15.61 18.6 19 26 1022.7 0 33.8 34.8 63.4 167.5 178.9 620.8
05/09 09:00 23.8 73 15.7 18.7 22 24 1022.6 0 34.0 34.9 63.7 168.3 179.9 624.5
05/09 08:50 23.6 73 15.53 18.5 22 26 1022.6 0 33.7 34.7 63.2 166.7 178.0 617.5
05/09 08:40 23.9 77 16.66 19.6 20 24 1022.6 0 36.0 36.6 68.0 179.5 193.8 672.6
05/09 08:30 23.7 76 16.26 19.2 22 26 1022.6 0 35.2 35.9 66.3 175.2 188.4 653.8
05/09 08:20 23.3 76 15.89 18.8 22 26 1022.5 0 34.5 35.4 65.0 171.6 183.9 638.2
05/09 08:10 23.3 78 16.31 19.2 20 26 1022.4 0 35.4 36.2 66.9 176.7 190.1 659.7
05/09 08:00 22.9 77 15.74 18.7 20 26 1022.4 0 34.2 35.3 64.7 170.7 182.7 633.8
05/09 07:50 22.5 78 15.58 18.5 20 26 1022.4 0 33.9 35.2 64.3 169.7 181.3 628.9
05/09 07:40 22.5 78 15.58 18.5 20 26 1022.3 0 33.9 35.2 64.3 169.7 181.3 628.9
05/09 07:30 22.6 78 15.67 18.6 17 24 1022.2 0 34.1 35.3 64.6 170.5 182.3 632.6
05/09 07:20 22.5 78 15.58 18.5 17 28 1022 0 33.9 35.2 64.3 169.6 181.2 628.7
05/09 07:10 22.3 80 15.8 18.7 19 28 1022 0 34.4 35.7 65.4 172.7 184.9 641.7
05/09 07:00 21.9 81 15.63 18.5 19 28 1021.9 0 34.0 35.5 65.0 171.6 183.4 636.2
05/09 06:50 21.8 81 15.54 18.4 20 28 1021.9 0 33.9 35.4 64.7 170.7 182.3 632.4
05/09 06:40 21.6 81 15.36 18.2 20 26 1021.7 0 33.5 35.1 64.0 169.0 180.1 624.7
05/09 06:30 21.7 81 15.45 18.3 24 28 1021.7 0 33.7 35.3 64.3 169.8 181.2 628.5
05/09 06:20 21.5 84 15.84 18.7 24 30 1021.6 0 34.5 36.1 66.3 175.0 187.5 650.4
05/09 06:10 21.5 84 15.84 18.7 22 26 1021.5 0 34.5 36.1 66.3 175.0 187.5 650.3
05/09 06:00 21.4 84 15.75 18.6 22 28 1021.4 0 34.3 35.9 65.9 174.1 186.3 646.4
05/09 05:50 21.4 83 15.56 18.4 24 28 1021.4 0 33.9 35.6 65.1 171.8 183.5 636.5
05/09 05:40 21.5 85 16.03 18.9 24 28 1021.3 0 34.9 36.4 67.1 177.3 190.3 660.2
05/09 05:30 21.3 83 15.47 18.3 20 26 1021.2 0 33.7 35.5 64.7 170.9 182.4 632.6
05/09 05:20 21.6 83 15.74 18.6 24 28 1021.2 0 34.3 35.8 65.7 173.5 185.7 644.1
05/09 05:10 21.7 83 15.83 18.7 17 26 1021.2 0 34.5 35.9 66.0 174.3 186.8 648.0
05/09 05:00 21.6 83 15.74 18.6 19 22 1021.2 0 34.3 35.8 65.7 173.5 185.7 644.1
05/09 04:50 21.5 82 15.46 18.3 19 26 1021.2 0 33.7 35.4 64.5 170.3 181.7 630.4
05/09 04:40 21.7 83 15.83 18.7 17 20 1021.1 0 34.5 35.9 66.0 174.3 186.8 647.9
05/09 04:30 21.5 83 15.65 18.5 19 24 1021 0 34.1 35.7 65.4 172.6 184.5 640.2
05/09 04:20 21.4 83 15.56 18.4 20 24 1020.9 0 33.9 35.6 65.0 171.7 183.4 636.3
05/09 04:10 21.6 84 15.93 18.8 17 22 1021 0 34.7 36.2 66.6 175.8 188.5 653.9
05/09 04:00 21.3 85 15.84 18.7 17 20 1020.9 0 34.5 36.1 66.4 175.3 187.9 651.8
05/09 03:50 21.5 86 16.22 19.1 20 24 1020.9 0 35.3 36.7 68.0 179.5 193.1 670.0
05/09 03:40 21.2 86 15.94 18.8 20 26 1020.8 0 34.8 36.3 66.9 176.8 189.6 657.8

Last Refresh: 05-Sep-2026 19:51:39

Bureau of Meteorology